createdAt,value
2018-05-04T00:00:35.035Z,47.40
2018-05-04T00:03:03.368Z,47.20
2018-05-04T00:05:31.677Z,47.30
2018-05-04T00:08:00.003Z,47.50
2018-05-04T00:10:28.385Z,48.20
2018-05-04T00:12:57.803Z,50.30
2018-05-04T00:15:26.164Z,50.20
2018-05-04T00:17:55.383Z,50.50
2018-05-04T00:20:23.668Z,50.50
2018-05-04T00:22:51.954Z,49.90
2018-05-04T00:25:20.246Z,50.60
2018-05-04T00:27:48.603Z,51.20
2018-05-04T00:30:16.917Z,50.70
2018-05-04T00:32:45.232Z,50.00
2018-05-04T00:35:14.429Z,49.60
2018-05-04T00:37:43.480Z,49.30
2018-05-04T00:40:12.577Z,49.10
2018-05-04T00:42:41.878Z,49.50
2018-05-04T00:45:10.218Z,49.40
2018-05-04T00:47:38.549Z,49.40
2018-05-04T00:50:07.650Z,49.90
2018-05-04T00:52:35.983Z,49.90
2018-05-04T00:55:04.339Z,50.60
2018-05-04T00:57:32.637Z,51.00
2018-05-04T01:00:00.977Z,51.90
2018-05-04T01:02:30.009Z,51.30
2018-05-04T01:04:58.463Z,51.30
2018-05-04T01:07:27.102Z,51.30
2018-05-04T01:09:55.388Z,51.20
2018-05-04T01:12:23.714Z,51.20
2018-05-04T01:14:51.989Z,51.40
2018-05-04T01:17:20.371Z,51.30
2018-05-04T01:19:48.988Z,51.50
2018-05-04T01:22:17.492Z,51.30
2018-05-04T01:24:46.588Z,50.90
2018-05-04T01:27:14.910Z,51.00
2018-05-04T01:29:43.267Z,51.30
2018-05-04T01:32:13.182Z,51.90
2018-05-04T01:34:41.627Z,51.90
2018-05-04T01:37:10.199Z,52.30
2018-05-04T01:39:38.565Z,52.00
2018-05-04T01:42:07.039Z,51.70
2018-05-04T01:44:35.759Z,51.50
2018-05-04T01:47:04.029Z,50.90
2018-05-04T01:49:32.389Z,51.30
2018-05-04T01:52:00.697Z,51.40
2018-05-04T01:54:29.235Z,51.00
2018-05-04T01:56:57.850Z,51.20
2018-05-04T01:59:26.228Z,50.40
2018-05-04T02:01:54.539Z,50.80
2018-05-04T02:04:22.938Z,51.00
2018-05-04T02:06:51.229Z,50.50
2018-05-04T02:09:19.670Z,51.20
2018-05-04T02:11:49.190Z,51.20
2018-05-04T02:14:17.568Z,51.20
2018-05-04T02:16:45.892Z,50.90
2018-05-04T02:19:14.598Z,51.10
2018-05-04T02:21:43.755Z,52.10
2018-05-04T02:24:12.129Z,52.00
2018-05-04T02:26:40.724Z,51.50
2018-05-04T02:29:09.204Z,51.40
2018-05-04T02:31:37.578Z,51.90
2018-05-04T02:34:06.277Z,51.10
2018-05-04T02:36:34.699Z,51.70
2018-05-04T02:39:03.924Z,52.00
2018-05-04T02:41:32.360Z,51.90
2018-05-04T02:44:02.170Z,51.30
2018-05-04T02:46:30.656Z,51.30
2018-05-04T02:48:58.936Z,52.20
2018-05-04T02:51:28.011Z,52.30
2018-05-04T02:53:56.766Z,52.00
2018-05-04T02:56:25.136Z,51.80
2018-05-04T02:58:53.771Z,52.40
2018-05-04T03:01:22.104Z,51.80
2018-05-04T03:03:50.771Z,52.60
2018-05-04T03:06:19.336Z,53.90
2018-05-04T03:08:47.849Z,53.80
2018-05-04T03:11:16.148Z,52.50
2018-05-04T03:13:44.460Z,54.20
2018-05-04T03:16:13.690Z,54.50
2018-05-04T03:18:42.250Z,54.50
2018-05-04T03:21:11.464Z,54.10
2018-05-04T03:23:40.549Z,54.40
2018-05-04T03:26:09.629Z,54.00
2018-05-04T03:28:38.716Z,54.30
2018-05-04T03:31:07.080Z,54.30
2018-05-04T03:33:35.405Z,54.70
2018-05-04T03:36:04.310Z,54.70
2018-05-04T03:38:32.667Z,54.80
2018-05-04T03:41:00.965Z,54.50
2018-05-04T03:43:29.279Z,54.90
2018-05-04T03:45:57.789Z,55.40
2018-05-04T03:48:26.986Z,55.90
2018-05-04T03:50:56.100Z,55.70
2018-05-04T03:53:24.574Z,55.70
2018-05-04T03:55:53.655Z,56.10
2018-05-04T03:58:40.514Z,55.20
2018-05-04T04:01:26.369Z,55.10
2018-05-04T04:04:06.657Z,55.00
2018-05-04T04:06:35.947Z,54.90
2018-05-04T04:09:07.299Z,55.60
2018-05-04T04:11:35.632Z,54.60
2018-05-04T04:14:04.054Z,54.70
2018-05-04T04:16:32.378Z,54.30
2018-05-04T04:19:00.661Z,54.20
2018-05-04T04:21:29.046Z,55.10
2018-05-04T04:23:57.409Z,55.50
2018-05-04T04:26:25.926Z,55.80
2018-05-04T04:28:54.279Z,55.80
2018-05-04T04:31:23.337Z,56.10
2018-05-04T04:33:51.665Z,55.70
2018-05-04T04:36:20.835Z,56.50
2018-05-04T04:38:50.169Z,56.50
2018-05-04T04:41:18.632Z,56.20
2018-05-04T04:43:46.865Z,56.50
2018-05-04T04:46:15.261Z,56.40
2018-05-04T04:48:43.689Z,55.90
2018-05-04T04:51:12.162Z,55.80
2018-05-04T04:53:41.323Z,56.00
2018-05-04T04:56:09.956Z,56.00
2018-05-04T04:58:38.369Z,56.20
2018-05-04T05:01:06.667Z,55.90
2018-05-04T05:03:35.362Z,55.80
2018-05-04T05:06:04.372Z,56.00
2018-05-04T05:08:32.918Z,56.40
2018-05-04T05:11:01.204Z,57.00
2018-05-04T05:13:29.522Z,57.10
2018-05-04T05:15:57.872Z,57.70
2018-05-04T05:18:26.231Z,58.40
2018-05-04T05:20:54.561Z,56.70
2018-05-04T05:23:23.223Z,56.60
2018-05-04T05:25:52.367Z,56.80
2018-05-04T05:28:20.782Z,56.80
2018-05-04T05:30:49.075Z,56.90
2018-05-04T05:33:17.521Z,56.70
2018-05-04T05:35:46.194Z,56.70
2018-05-04T05:38:14.632Z,56.70
2018-05-04T05:40:43.755Z,56.70
2018-05-04T05:43:12.105Z,56.70
2018-05-04T05:45:41.200Z,56.40
2018-05-04T05:48:10.377Z,56.40
2018-05-04T05:50:39.582Z,55.90
2018-05-04T05:53:07.955Z,56.00
2018-05-04T05:55:37.035Z,55.40
2018-05-04T05:58:05.397Z,55.40
2018-05-04T06:00:33.717Z,55.50
2018-05-04T06:03:02.823Z,55.50
2018-05-04T06:05:31.205Z,55.50
2018-05-04T06:07:59.516Z,55.70
2018-05-04T06:10:27.952Z,55.50
2018-05-04T06:12:56.286Z,55.50
2018-05-04T06:15:24.593Z,55.40
2018-05-04T06:17:53.651Z,54.80
2018-05-04T06:20:21.935Z,54.80
2018-05-04T06:22:50.397Z,54.80
2018-05-04T06:25:19.066Z,55.00
2018-05-04T06:27:47.352Z,54.70
2018-05-04T06:30:15.680Z,54.20
2018-05-04T06:32:45.039Z,53.10
2018-05-04T06:35:13.460Z,53.00
2018-05-04T06:37:42.544Z,54.00
2018-05-04T06:40:12.036Z,54.00
2018-05-04T06:42:40.618Z,54.40
2018-05-04T06:45:08.905Z,53.20
2018-05-04T06:47:37.241Z,52.50
2018-05-04T06:50:05.595Z,52.10
2018-05-04T06:52:34.175Z,51.10
2018-05-04T06:55:02.500Z,50.70
2018-05-04T06:57:30.925Z,49.80
2018-05-04T06:59:59.405Z,49.60
2018-05-04T07:02:28.492Z,49.60
2018-05-04T07:04:57.585Z,48.60
2018-05-04T07:07:27.885Z,48.80
2018-05-04T07:09:56.316Z,48.80
2018-05-04T07:12:25.748Z,48.70
2018-05-04T07:14:54.113Z,48.00
2018-05-04T07:17:22.762Z,47.50
2018-05-04T07:19:51.870Z,47.10
2018-05-04T07:22:20.282Z,47.10
2018-05-04T07:24:48.621Z,46.50
2018-05-04T07:27:17.815Z,46.70
2018-05-04T07:29:46.927Z,46.30
2018-05-04T07:32:15.295Z,46.30
2018-05-04T07:34:44.376Z,45.30
2018-05-04T07:37:13.642Z,44.90
2018-05-04T07:39:42.797Z,44.40
2018-05-04T07:42:11.258Z,44.30
2018-05-04T07:44:39.590Z,44.90
2018-05-04T07:47:07.931Z,44.10
2018-05-04T07:49:36.344Z,44.30
2018-05-04T07:52:04.736Z,43.70
2018-05-04T07:54:33.129Z,43.60
2018-05-04T07:57:01.577Z,42.80
2018-05-04T07:59:29.916Z,42.90
2018-05-04T08:01:58.305Z,42.40
2018-05-04T08:04:26.608Z,42.30
2018-05-04T08:06:54.999Z,41.90
2018-05-04T08:09:23.295Z,42.00
2018-05-04T08:11:52.420Z,41.50
2018-05-04T08:14:22.447Z,41.20
2018-05-04T08:16:50.885Z,41.10
2018-05-04T08:19:19.306Z,40.30
2018-05-04T08:21:47.603Z,39.60
2018-05-04T08:24:16.093Z,40.00
2018-05-04T08:26:44.470Z,40.40
2018-05-04T08:29:12.980Z,39.50
2018-05-04T08:31:41.541Z,37.90
2018-05-04T08:34:09.995Z,37.30
2018-05-04T08:36:38.335Z,37.30
2018-05-04T08:39:07.497Z,35.70
2018-05-04T08:41:35.811Z,35.70
2018-05-04T08:44:05.078Z,37.90
2018-05-04T08:46:33.423Z,37.90
2018-05-04T08:49:01.885Z,38.30
2018-05-04T08:51:31.043Z,38.00
2018-05-04T08:53:59.373Z,38.00
2018-05-04T08:56:27.849Z,37.00
2018-05-04T08:58:56.182Z,38.20
2018-05-04T09:01:24.773Z,37.50
2018-05-04T09:03:53.141Z,37.60
2018-05-04T09:06:21.461Z,37.90
2018-05-04T09:08:49.791Z,36.40
2018-05-04T09:11:18.080Z,36.30
2018-05-04T09:13:46.644Z,35.40
2018-05-04T09:16:14.957Z,35.30
2018-05-04T09:18:44.316Z,34.80
2018-05-04T09:21:12.677Z,34.60
2018-05-04T09:23:41.002Z,34.50
2018-05-04T09:26:09.331Z,32.30
2018-05-04T09:28:37.643Z,32.40
2018-05-04T09:31:06.063Z,33.80
2018-05-04T09:33:34.325Z,33.90
2018-05-04T09:36:03.381Z,33.40
2018-05-04T09:38:31.783Z,33.40
2018-05-04T09:41:00.434Z,31.20
2018-05-04T09:43:28.868Z,33.70
2018-05-04T09:45:57.183Z,31.70
2018-05-04T09:48:25.665Z,32.30
2018-05-04T09:50:54.157Z,32.70
2018-05-04T09:53:22.516Z,33.40
2018-05-04T09:55:51.028Z,32.30
2018-05-04T09:58:19.428Z,31.10
2018-05-04T10:00:47.764Z,30.80
2018-05-04T10:03:16.121Z,30.90
2018-05-04T10:05:44.412Z,30.10
2018-05-04T10:08:13.111Z,30.10
2018-05-04T10:10:41.741Z,31.20
2018-05-04T10:13:10.877Z,31.10
2018-05-04T10:15:39.164Z,31.10
2018-05-04T10:18:07.502Z,30.50
2018-05-04T10:20:35.794Z,29.70
2018-05-04T10:23:04.176Z,30.10
2018-05-04T10:25:32.492Z,30.10
2018-05-04T10:28:01.117Z,30.50
2018-05-04T10:30:30.374Z,29.50
2018-05-04T10:32:58.927Z,29.50
2018-05-04T10:35:27.246Z,29.10
2018-05-04T10:37:55.768Z,29.50
2018-05-04T10:40:24.447Z,27.60
2018-05-04T10:42:52.916Z,27.50
2018-05-04T10:45:21.335Z,27.80
2018-05-04T10:47:49.693Z,28.50
2018-05-04T10:50:18.330Z,28.50
2018-05-04T10:52:46.733Z,28.60
2018-05-04T10:55:15.887Z,28.70
2018-05-04T10:57:44.188Z,28.70
2018-05-04T11:00:12.578Z,28.50
2018-05-04T11:02:41.674Z,27.80
2018-05-04T11:05:10.731Z,28.50
2018-05-04T11:07:39.147Z,28.50
2018-05-04T11:10:08.329Z,28.60
2018-05-04T11:12:38.350Z,28.20
2018-05-04T11:15:06.895Z,28.20
2018-05-04T11:17:35.367Z,27.60
2018-05-04T11:20:03.703Z,27.80
2018-05-04T11:22:32.831Z,28.10
2018-05-04T11:25:01.138Z,28.10
2018-05-04T11:27:29.611Z,28.10
2018-05-04T11:29:58.032Z,28.40
2018-05-04T11:32:26.420Z,28.30
2018-05-04T11:34:55.506Z,27.90
2018-05-04T11:37:23.833Z,27.90
2018-05-04T11:39:52.259Z,28.20
2018-05-04T11:42:20.587Z,28.30
2018-05-04T11:44:49.150Z,27.80
2018-05-04T11:47:17.535Z,27.60
2018-05-04T11:49:46.020Z,27.20
2018-05-04T11:52:14.376Z,26.70
2018-05-04T11:54:42.697Z,27.60
2018-05-04T11:57:11.037Z,26.80
2018-05-04T11:59:39.373Z,26.70
2018-05-04T12:02:07.782Z,25.90
2018-05-04T12:04:36.961Z,28.20
2018-05-04T12:07:05.583Z,28.10
2018-05-04T12:09:33.896Z,26.60
2018-05-04T12:12:02.331Z,26.10
2018-05-04T12:14:30.847Z,26.00
2018-05-04T12:16:59.218Z,26.60
2018-05-04T12:19:27.821Z,26.30
2018-05-04T12:21:56.122Z,26.00
2018-05-04T12:24:24.538Z,26.60
2018-05-04T12:26:52.835Z,25.90
2018-05-04T12:29:21.627Z,26.60
2018-05-04T12:31:50.273Z,26.00
2018-05-04T12:34:18.762Z,26.20
2018-05-04T12:36:47.331Z,25.50
2018-05-04T12:39:16.530Z,26.40
2018-05-04T12:41:45.607Z,25.40
2018-05-04T12:44:15.074Z,25.40
2018-05-04T12:46:43.427Z,25.10
2018-05-04T12:49:11.733Z,26.40
2018-05-04T12:51:40.062Z,25.10
2018-05-04T12:54:09.141Z,26.20
2018-05-04T12:56:38.357Z,25.10
2018-05-04T12:59:07.578Z,25.40
2018-05-04T13:01:35.940Z,25.40
2018-05-04T13:04:04.224Z,26.00
2018-05-04T13:06:32.568Z,24.90
2018-05-04T13:09:00.933Z,24.70
2018-05-04T13:11:29.241Z,24.70
2018-05-04T13:13:58.418Z,24.90
2018-05-04T13:16:26.787Z,24.90
2018-05-04T13:18:55.381Z,25.30
2018-05-04T13:21:23.753Z,25.10
2018-05-04T13:23:52.113Z,24.90
2018-05-04T13:26:20.546Z,24.70
2018-05-04T13:28:49.044Z,23.50
2018-05-04T13:31:17.609Z,23.30
2018-05-04T13:33:45.978Z,24.20
2018-05-04T13:36:14.544Z,24.80
2018-05-04T13:38:43.711Z,24.60
2018-05-04T13:41:12.200Z,24.10
2018-05-04T13:43:40.678Z,24.00
2018-05-04T13:46:09.171Z,24.30
2018-05-04T13:48:37.533Z,24.20
2018-05-04T13:51:06.138Z,23.70
2018-05-04T13:53:34.479Z,24.10
2018-05-04T13:56:03.057Z,24.50
2018-05-04T13:58:31.459Z,24.90
2018-05-04T14:00:59.822Z,24.80
2018-05-04T14:03:28.183Z,25.30
2018-05-04T14:05:56.589Z,26.10
2018-05-04T14:08:25.178Z,25.50
2018-05-04T14:10:53.523Z,24.90
2018-05-04T14:13:22.912Z,25.10
2018-05-04T14:15:51.288Z,25.10
2018-05-04T14:18:19.647Z,24.70
2018-05-04T14:20:48.799Z,24.90
2018-05-04T14:23:17.283Z,24.90
2018-05-04T14:25:45.670Z,24.80
2018-05-04T14:28:14.158Z,24.10
2018-05-04T14:30:42.553Z,23.90
2018-05-04T14:33:10.909Z,24.20
2018-05-04T14:35:39.303Z,24.10
2018-05-04T14:38:07.767Z,23.70
2018-05-04T14:40:36.114Z,23.70
2018-05-04T14:43:04.513Z,25.70
2018-05-04T14:45:32.839Z,26.00
2018-05-04T14:48:03.229Z,27.00
2018-05-04T14:50:32.845Z,27.10
2018-05-04T14:53:01.298Z,24.90
2018-05-04T14:55:29.678Z,24.60
2018-05-04T14:57:58.013Z,24.10
2018-05-04T15:00:26.369Z,24.40
2018-05-04T15:02:54.753Z,26.20
2018-05-04T15:05:23.843Z,25.10
2018-05-04T15:07:52.972Z,25.30
2018-05-04T15:10:21.330Z,25.30
2018-05-04T15:12:50.524Z,24.50
2018-05-04T15:15:19.882Z,25.50
2018-05-04T15:17:48.661Z,25.50
2018-05-04T15:20:17.048Z,24.30
2018-05-04T15:22:45.435Z,25.10
2018-05-04T15:25:13.727Z,24.90
2018-05-04T15:27:42.219Z,24.30
2018-05-04T15:30:10.544Z,24.50
2018-05-04T15:32:39.133Z,23.80
2018-05-04T15:35:07.465Z,23.20
2018-05-04T15:37:36.693Z,23.20
2018-05-04T15:40:05.058Z,23.20
2018-05-04T15:42:33.659Z,22.50
2018-05-04T15:45:02.002Z,22.60
2018-05-04T15:47:30.385Z,22.70
2018-05-04T15:50:05.031Z,21.90
2018-05-04T15:52:33.328Z,21.90
2018-05-04T15:55:01.821Z,21.20
2018-05-04T15:57:30.010Z,21.80
2018-05-04T15:59:58.750Z,20.50
2018-05-04T16:02:27.095Z,20.90
2018-05-04T16:04:55.527Z,21.50
2018-05-04T16:07:23.894Z,21.00
2018-05-04T16:09:55.223Z,20.40
2018-05-04T16:12:27.592Z,20.10
2018-05-04T16:14:57.907Z,20.10
2018-05-04T16:17:30.541Z,21.00
2018-05-04T16:19:59.047Z,20.50
2018-05-04T16:22:27.410Z,20.40
2018-05-04T16:24:57.420Z,20.80
2018-05-04T16:27:27.484Z,20.80
2018-05-04T16:29:57.460Z,20.20
2018-05-04T16:32:29.003Z,20.20
2018-05-04T16:34:59.472Z,20.60
2018-05-04T16:37:28.793Z,20.70
2018-05-04T16:39:57.114Z,20.70
2018-05-04T16:42:25.745Z,21.50
2018-05-04T16:44:55.399Z,21.00
2018-05-04T16:47:25.849Z,21.10
2018-05-04T16:49:54.496Z,21.10
2018-05-04T16:52:22.806Z,20.20
2018-05-04T16:54:51.258Z,20.70
2018-05-04T16:57:19.578Z,21.50
2018-05-04T16:59:48.230Z,21.90
2018-05-04T17:02:16.614Z,21.60
2018-05-04T17:04:45.235Z,19.90
2018-05-04T17:07:13.817Z,20.00
2018-05-04T17:09:42.174Z,20.20
2018-05-04T17:12:10.519Z,20.00
2018-05-04T17:14:39.272Z,20.40
2018-05-04T17:17:07.632Z,20.30
2018-05-04T17:19:36.003Z,20.20
2018-05-04T17:22:04.414Z,20.40
2018-05-04T17:24:32.767Z,20.40
2018-05-04T17:27:02.743Z,20.40
2018-05-04T17:29:31.305Z,20.40
2018-05-04T17:31:59.759Z,20.80
2018-05-04T17:34:29.098Z,21.10
2018-05-04T17:36:57.501Z,21.10
2018-05-04T17:39:25.870Z,21.30
2018-05-04T17:41:54.430Z,23.90
2018-05-04T17:44:25.639Z,21.20
2018-05-04T17:47:00.700Z,21.60
2018-05-04T17:49:31.393Z,21.70
2018-05-04T17:52:01.637Z,22.00
2018-05-04T17:54:30.006Z,22.00
2018-05-04T17:56:59.435Z,22.30
2018-05-04T17:59:30.584Z,23.40
2018-05-04T18:01:58.961Z,24.40
2018-05-04T18:04:27.500Z,25.00
2018-05-04T18:06:56.388Z,25.50
2018-05-04T18:09:25.663Z,26.30
2018-05-04T18:11:54.864Z,26.40
2018-05-04T18:14:23.216Z,25.80
2018-05-04T18:16:52.517Z,27.70
2018-05-04T18:19:20.960Z,27.60
2018-05-04T18:21:50.084Z,27.70
2018-05-04T18:24:18.571Z,27.70
2018-05-04T18:26:46.921Z,28.40
2018-05-04T18:29:16.099Z,27.90
2018-05-04T18:31:46.059Z,28.40
2018-05-04T18:34:14.599Z,28.40
2018-05-04T18:36:43.095Z,28.40
2018-05-04T18:39:11.809Z,28.60
2018-05-04T18:41:40.378Z,27.30
2018-05-04T18:44:09.386Z,28.80
2018-05-04T18:46:37.834Z,28.70
2018-05-04T18:49:06.952Z,28.80
2018-05-04T18:51:36.385Z,28.10
2018-05-04T18:54:05.209Z,28.10
2018-05-04T18:56:34.449Z,27.40
2018-05-04T18:59:03.081Z,27.50
2018-05-04T19:01:31.774Z,27.70
2018-05-04T19:04:00.337Z,27.80
2018-05-04T19:06:28.784Z,28.10
2018-05-04T19:08:57.402Z,28.10
2018-05-04T19:11:26.030Z,28.30
2018-05-04T19:13:55.242Z,28.70
2018-05-04T19:16:23.661Z,28.60
2018-05-04T19:18:52.548Z,28.90
2018-05-04T19:21:21.115Z,28.90
2018-05-04T19:23:49.850Z,29.10
2018-05-04T19:26:18.250Z,29.10
2018-05-04T19:28:47.175Z,29.20
2018-05-04T19:31:15.623Z,29.30
2018-05-04T19:33:44.060Z,29.30
2018-05-04T19:36:12.432Z,29.50
2018-05-04T19:38:42.278Z,29.50
2018-05-04T19:41:10.635Z,29.40
2018-05-04T19:43:39.038Z,29.60
2018-05-04T19:46:07.437Z,29.60
2018-05-04T19:48:36.768Z,29.50
2018-05-04T19:51:05.364Z,29.50
2018-05-04T19:53:33.841Z,29.50
2018-05-04T19:56:02.398Z,29.40
2018-05-04T19:58:31.085Z,29.60
2018-05-04T20:00:59.576Z,29.70
2018-05-04T20:03:27.954Z,29.60
2018-05-04T20:05:57.790Z,30.00
2018-05-04T20:08:26.150Z,30.00
2018-05-04T20:10:54.521Z,30.00
2018-05-04T20:13:22.907Z,30.10
2018-05-04T20:15:51.461Z,30.20
2018-05-04T20:18:20.519Z,30.40
2018-05-04T20:20:49.000Z,30.40
2018-05-04T20:23:17.443Z,30.50
2018-05-04T20:25:45.968Z,30.60
2018-05-04T20:28:14.336Z,31.10
2018-05-04T20:30:42.855Z,30.80
2018-05-04T20:33:12.105Z,31.20
2018-05-04T20:35:40.630Z,31.20
2018-05-04T20:38:10.917Z,31.20
2018-05-04T20:40:39.239Z,31.20
2018-05-04T20:43:08.351Z,31.30
2018-05-04T20:45:36.781Z,31.30
2018-05-04T20:48:06.152Z,31.50
2018-05-04T20:50:34.746Z,31.60
2018-05-04T20:53:03.502Z,31.80
2018-05-04T20:55:32.110Z,31.80
2018-05-04T20:58:01.321Z,32.00
2018-05-04T21:00:29.634Z,31.90
2018-05-04T21:02:58.205Z,32.20
2018-05-04T21:05:26.678Z,32.60
2018-05-04T21:07:55.149Z,32.80
2018-05-04T21:10:23.509Z,32.80
2018-05-04T21:12:51.887Z,33.10
2018-05-04T21:15:20.281Z,33.10
2018-05-04T21:17:48.704Z,33.10
2018-05-04T21:20:17.886Z,33.40
2018-05-04T21:22:47.242Z,33.80
2018-05-04T21:25:15.591Z,33.80
2018-05-04T21:27:44.671Z,34.00
2018-05-04T21:30:13.784Z,34.10
2018-05-04T21:32:43.131Z,34.30
2018-05-04T21:35:11.486Z,34.30
2018-05-04T21:37:39.967Z,34.40
2018-05-04T21:40:08.315Z,34.40
2018-05-04T21:42:37.800Z,35.20
2018-05-04T21:45:06.230Z,35.00
2018-05-04T21:47:34.689Z,35.50
2018-05-04T21:50:03.035Z,35.00
2018-05-04T21:52:31.440Z,35.00
2018-05-04T21:54:59.810Z,35.20
2018-05-04T21:57:28.921Z,35.60
2018-05-04T21:59:57.322Z,35.60
2018-05-04T22:02:26.902Z,35.80
2018-05-04T22:04:56.275Z,35.70
2018-05-04T22:07:24.640Z,35.70
2018-05-04T22:09:53.068Z,35.90
2018-05-04T22:12:21.441Z,35.80
2018-05-04T22:14:50.743Z,36.00
2018-05-04T22:17:19.103Z,36.00
2018-05-04T22:19:48.256Z,36.10
2018-05-04T22:22:17.571Z,36.40
2018-05-04T22:24:45.910Z,36.40
2018-05-04T22:27:14.250Z,36.50
2018-05-04T22:29:43.644Z,37.10
2018-05-04T22:32:14.470Z,37.10
2018-05-04T22:34:42.878Z,37.10
2018-05-04T22:37:12.000Z,37.30
2018-05-04T22:39:40.470Z,37.20
2018-05-04T22:42:08.833Z,37.20
2018-05-04T22:44:37.475Z,37.60
2018-05-04T22:47:08.139Z,37.50
2018-05-04T22:49:37.227Z,37.60
2018-05-04T22:52:06.442Z,37.70
2018-05-04T22:54:35.538Z,38.20
2018-05-04T22:57:04.965Z,38.30
2018-05-04T22:59:33.282Z,38.20
2018-05-04T23:02:01.842Z,38.40
2018-05-04T23:04:30.734Z,38.40
2018-05-04T23:06:59.397Z,38.20
2018-05-04T23:09:28.175Z,38.20
2018-05-04T23:11:56.600Z,38.10
2018-05-04T23:14:25.014Z,37.90
2018-05-04T23:16:54.234Z,37.90
2018-05-04T23:19:22.550Z,37.90
2018-05-04T23:21:52.039Z,38.20
2018-05-04T23:24:20.643Z,38.20
2018-05-04T23:26:49.165Z,38.00
2018-05-04T23:29:18.384Z,38.20
2018-05-04T23:31:46.745Z,38.10
2018-05-04T23:34:15.455Z,38.20
2018-05-04T23:36:43.777Z,38.20
2018-05-04T23:39:12.332Z,38.30
2018-05-04T23:41:40.631Z,38.10
2018-05-04T23:44:09.087Z,38.00
2018-05-04T23:46:37.455Z,38.10
2018-05-04T23:49:05.809Z,38.10
2018-05-04T23:51:36.087Z,38.40
2018-05-04T23:54:04.432Z,38.30
2018-05-04T23:56:32.735Z,38.40
2018-05-04T23:59:01.142Z,38.60
